Time;durP1;ratioP1;P1;durP2;ratioP2;P2;SDS_P1;SDS_P2;PMS_P1;PMS_P2;Temp;Humidity;BMP_temperature;BMP_pressure;BME280_temperature;BME280_humidity;BME280_pressure;Samples;Min_cycle;Max_cycle;Signal;HPM_P1;HPM_P2
2023/04/05 00:00:38;;;;;;;2.42;1.77;;;15.60;50.90;;;;;;5051868;28;20583;-65
2023/04/05 00:03:04;;;;;;;1.85;1.73;;;15.60;51.00;;;;;;5052227;28;20210;-65
2023/04/05 00:05:30;;;;;;;2.30;2.10;;;15.50;50.90;;;;;;5051178;28;20202;-65
2023/04/05 00:07:56;;;;;;;2.45;1.95;;;15.50;50.90;;;;;;5051467;28;20661;-64
2023/04/05 00:10:21;;;;;;;2.38;2.17;;;15.70;51.00;;;;;;5052192;28;20182;-63
2023/04/05 00:12:47;;;;;;;2.28;2.08;;;15.50;50.90;;;;;;5051731;28;20175;-64
2023/04/05 00:15:12;;;;;;;2.08;1.90;;;15.50;50.90;;;;;;5051673;28;20171;-63
2023/04/05 00:17:38;;;;;;;1.70;1.60;;;15.50;50.90;;;;;;5052174;28;20175;-63
2023/04/05 00:20:06;;;;;;;1.95;1.83;;;15.50;51.00;;;;;;5050577;28;20179;-63
2023/04/05 00:22:34;;;;;;;2.42;2.22;;;15.50;50.90;;;;;;5051097;28;20227;-63
2023/04/05 00:25:03;;;;;;;2.13;1.90;;;15.50;51.00;;;;;;5051683;28;20183;-64
2023/04/05 00:27:29;;;;;;;2.30;2.20;;;15.50;51.00;;;;;;5051931;28;20211;-64
2023/04/05 00:29:55;;;;;;;2.10;1.90;;;15.40;51.60;;;;;;5051155;28;20199;-65
2023/04/05 00:32:20;;;;;;;2.55;2.35;;;15.50;51.00;;;;;;5051856;28;20217;-63
2023/04/05 00:34:46;;;;;;;1.95;1.85;;;15.40;51.00;;;;;;5051578;28;20178;-64
2023/04/05 00:37:11;;;;;;;2.22;2.03;;;15.50;51.00;;;;;;5051153;28;20179;-63
2023/04/05 00:39:38;;;;;;;1.90;1.70;;;15.50;51.00;;;;;;5051800;28;20225;-63
2023/04/05 00:42:05;;;;;;;2.90;2.10;;;15.50;51.70;;;;;;5050611;28;20190;-63
2023/04/05 00:44:33;;;;;;;2.03;1.92;;;15.40;51.00;;;;;;5051666;28;20175;-63
2023/04/05 00:47:02;;;;;;;2.40;1.80;;;15.40;51.00;;;;;;5051413;28;20179;-64
2023/04/05 00:49:29;;;;;;;1.77;1.67;;;15.40;51.00;;;;;;5051055;28;20270;-64
2023/04/05 00:51:55;;;;;;;2.20;2.00;;;15.40;51.00;;;;;;5051403;28;20195;-63
2023/04/05 00:54:21;;;;;;;1.80;1.67;;;15.40;51.00;;;;;;5050290;28;20680;-64
2023/04/05 00:56:47;;;;;;;2.08;1.50;;;15.40;51.00;;;;;;5049543;28;20264;-63
2023/04/05 00:59:12;;;;;;;2.13;1.92;;;15.40;51.00;;;;;;5050493;28;20178;-64
2023/04/05 01:01:39;;;;;;;2.17;1.70;;;15.40;51.00;;;;;;5051614;28;20171;-64
2023/04/05 01:04:06;;;;;;;2.08;1.60;;;15.30;51.00;;;;;;5049206;28;20574;-64
2023/04/05 01:06:31;;;;;;;2.08;1.88;;;15.40;51.00;;;;;;5050381;28;20176;-64
2023/04/05 01:09:07;;;;;;;2.58;2.38;;;15.30;50.90;;;;;;5051134;28;20198;-63
2023/04/05 01:11:32;;;;;;;1.80;1.70;;;15.40;51.00;;;;;;5051193;28;20186;-63
2023/04/05 01:13:59;;;;;;;2.10;1.90;;;15.30;51.00;;;;;;5051175;28;20218;-63
2023/04/05 01:16:25;;;;;;;2.40;1.92;;;15.30;50.90;;;;;;5051462;28;20175;-63
2023/04/05 01:18:55;;;;;;;2.20;2.00;;;15.30;51.50;;;;;;5050446;28;20263;-63
2023/04/05 01:21:32;;;;;;;2.08;1.88;;;15.30;51.00;;;;;;5051190;28;20642;-62
2023/04/05 01:24:08;;;;;;;1.83;1.67;;;15.30;51.00;;;;;;5049815;28;20272;-63
2023/04/05 01:26:53;;;;;;;2.05;1.70;;;15.20;50.90;;;;;;5050835;28;20258;-64
2023/04/05 01:29:52;;;;;;;2.08;1.75;;;15.30;51.00;;;;;;5051361;28;20179;-64
2023/04/05 01:32:37;;;;;;;2.38;1.80;;;15.30;51.00;;;;;;5050951;28;20183;-64
2023/04/05 01:35:29;;;;;;;2.35;2.15;;;15.30;51.00;;;;;;5053734;28;20262;-64
2023/04/05 01:37:58;;;;;;;2.10;2.00;;;15.30;51.00;;;;;;5053569;28;20253;-63
2023/04/05 01:40:24;;;;;;;2.38;2.00;;;15.20;50.90;;;;;;5053076;28;20182;-62
2023/04/05 01:42:49;;;;;;;3.13;1.92;;;15.20;50.90;;;;;;5053549;28;20628;-63
2023/04/05 01:45:15;;;;;;;1.75;1.60;;;15.20;50.90;;;;;;5055263;28;20174;-64
2023/04/05 01:47:41;;;;;;;2.20;1.85;;;15.20;50.90;;;;;;5054404;28;20475;-64
2023/04/05 01:50:07;;;;;;;2.03;1.83;;;15.20;50.90;;;;;;5053440;28;20587;-64
2023/04/05 01:52:32;;;;;;;2.40;2.05;;;15.10;51.00;;;;;;5054033;28;20179;-63
2023/04/05 01:54:58;;;;;;;1.73;1.63;;;15.20;50.90;;;;;;5053106;28;20672;-63
2023/04/05 01:57:24;;;;;;;2.15;1.98;;;15.20;51.60;;;;;;5054626;28;20233;-64
2023/04/05 01:59:49;;;;;;;2.10;1.90;;;15.20;51.00;;;;;;5053920;28;20197;-63
2023/04/05 02:02:15;;;;;;;1.90;1.80;;;15.20;50.90;;;;;;5054757;28;20175;-64
2023/04/05 02:04:41;;;;;;;2.15;1.95;;;15.20;51.00;;;;;;5054635;28;20171;-64
2023/04/05 02:07:06;;;;;;;2.22;2.00;;;15.20;50.90;;;;;;5053703;28;20246;-63
2023/04/05 02:09:32;;;;;;;2.60;2.03;;;15.20;51.00;;;;;;5054733;28;20216;-63
2023/04/05 02:11:58;;;;;;;1.80;1.70;;;15.10;51.00;;;;;;5054143;28;20258;-63
2023/04/05 02:14:23;;;;;;;1.92;1.83;;;15.10;50.90;;;;;;5053847;28;20176;-62
2023/04/05 02:16:49;;;;;;;2.17;1.80;;;15.10;50.90;;;;;;5054123;28;20577;-63
2023/04/05 02:19:21;;;;;;;2.03;1.83;;;15.10;50.90;;;;;;5054359;28;20510;-62
2023/04/05 02:21:48;;;;;;;1.90;1.80;;;15.10;50.90;;;;;;5052944;28;20226;-62
2023/04/05 02:24:13;;;;;;;1.90;1.77;;;15.10;50.90;;;;;;5054354;28;20309;-62
2023/04/05 02:26:39;;;;;;;2.10;1.70;;;15.10;51.00;;;;;;5054361;28;20696;-64
2023/04/05 02:29:04;;;;;;;2.28;2.08;;;15.10;50.90;;;;;;5053122;28;20634;-64
2023/04/05 02:31:30;;;;;;;2.10;1.90;;;15.00;50.90;;;;;;5054103;28;20297;-64
2023/04/05 02:33:56;;;;;;;2.05;1.85;;;15.00;50.90;;;;;;5053718;28;20179;-64
2023/04/05 02:36:23;;;;;;;1.83;1.73;;;15.10;51.00;;;;;;5053048;28;20321;-63
2023/04/05 02:38:48;;;;;;;2.05;1.80;;;15.00;51.00;;;;;;5053827;28;20185;-64
2023/04/05 02:41:14;;;;;;;2.70;2.35;;;15.00;51.00;;;;;;5053852;28;20179;-62
2023/04/05 02:43:39;;;;;;;2.10;1.90;;;15.00;51.00;;;;;;5052133;28;20245;-63
2023/04/05 02:46:05;;;;;;;2.30;2.10;;;15.00;50.90;;;;;;5053588;28;20171;-64
2023/04/05 02:48:31;;;;;;;2.03;1.92;;;15.00;51.00;;;;;;5053807;28;20316;-64
2023/04/05 02:50:57;;;;;;;2.00;1.90;;;15.00;51.00;;;;;;5052739;28;20180;-64
2023/04/05 02:53:22;;;;;;;2.38;1.95;;;15.00;51.60;;;;;;5053935;28;20178;-64
2023/04/05 02:55:55;;;;;;;2.25;2.05;;;15.00;51.00;;;;;;5052921;28;20175;-63
2023/04/05 02:58:21;;;;;;;2.65;2.45;;;15.00;51.00;;;;;;5053735;28;20198;-63
2023/04/05 03:00:50;;;;;;;2.33;2.13;;;15.00;51.00;;;;;;5053287;28;20175;-64
2023/04/05 03:03:22;;;;;;;2.20;2.00;;;15.00;51.00;;;;;;5052912;28;20215;-63
2023/04/05 03:05:48;;;;;;;1.90;1.80;;;15.00;51.00;;;;;;5053067;28;20496;-64
2023/04/05 03:08:22;;;;;;;3.00;1.85;;;15.00;51.00;;;;;;5053595;28;20526;-63
2023/04/05 03:10:50;;;;;;;2.08;1.88;;;14.90;50.90;;;;;;5052671;28;20170;-63
2023/04/05 03:13:15;;;;;;;2.08;1.90;;;14.90;51.00;;;;;;5052049;28;20312;-62
2023/04/05 03:15:41;;;;;;;2.45;2.25;;;14.90;51.00;;;;;;5053351;28;20262;-62
2023/04/05 03:18:07;;;;;;;2.17;1.98;;;14.90;51.00;;;;;;5052421;28;20245;-62
2023/04/05 03:20:34;;;;;;;2.70;2.45;;;14.90;51.00;;;;;;5053298;28;20182;-62
2023/04/05 03:23:00;;;;;;;3.13;2.20;;;14.90;51.00;;;;;;5052602;28;20323;-62
2023/04/05 03:25:26;;;;;;;2.17;1.98;;;14.90;51.00;;;;;;5052489;28;20167;-63
2023/04/05 03:27:52;;;;;;;2.72;2.08;;;14.90;51.00;;;;;;5052668;28;20700;-64
2023/04/05 03:30:17;;;;;;;2.30;2.10;;;14.90;50.90;;;;;;5053042;28;20182;-64
2023/04/05 03:32:43;;;;;;;2.17;1.98;;;14.90;51.00;;;;;;5051887;28;20176;-64
2023/04/05 03:35:08;;;;;;;2.10;1.92;;;14.80;50.90;;;;;;5052930;28;20630;-63
2023/04/05 03:37:34;;;;;;;2.20;2.00;;;14.90;51.00;;;;;;5053009;28;20179;-62
2023/04/05 03:39:59;;;;;;;1.60;1.50;;;14.80;50.90;;;;;;5052602;28;20171;-62
2023/04/05 03:42:25;;;;;;;2.22;2.03;;;14.90;51.00;;;;;;5052184;28;20281;-62
2023/04/05 03:44:51;;;;;;;2.28;2.08;;;14.80;51.00;;;;;;5053031;28;20258;-64
2023/04/05 03:47:17;;;;;;;2.60;2.05;;;14.80;50.90;;;;;;5052515;28;20179;-64
2023/04/05 03:49:42;;;;;;;2.55;2.13;;;14.80;50.90;;;;;;5053095;28;20226;-63
2023/04/05 03:52:08;;;;;;;2.10;1.90;;;14.80;51.00;;;;;;5052673;28;20171;-63
2023/04/05 03:54:34;;;;;;;2.72;2.15;;;14.80;50.90;;;;;;5052769;28;20586;-62
2023/04/05 03:57:00;;;;;;;2.10;2.00;;;14.80;50.90;;;;;;5052754;28;20194;-63
2023/04/05 03:59:25;;;;;;;2.33;2.03;;;14.80;51.00;;;;;;5052403;28;20253;-62
2023/04/05 04:01:54;;;;;;;1.90;1.80;;;14.80;51.10;;;;;;5051513;28;20167;-63
2023/04/05 04:04:23;;;;;;;3.25;2.53;;;14.80;51.00;;;;;;5052992;28;20301;-63
2023/04/05 04:06:48;;;;;;;2.47;1.85;;;14.80;51.00;;;;;;5052028;28;20181;-63
2023/04/05 04:09:14;;;;;;;2.42;2.22;;;14.80;51.00;;;;;;5052996;28;20254;-62
2023/04/05 04:11:40;;;;;;;2.15;1.90;;;14.70;51.00;;;;;;5052825;28;20175;-62
2023/04/05 04:14:05;;;;;;;2.25;2.05;;;14.70;50.90;;;;;;5051697;28;20175;-62
2023/04/05 04:16:34;;;;;;;2.65;2.45;;;14.70;51.00;;;;;;5052710;28;20259;-62
2023/04/05 04:18:59;;;;;;;2.20;2.03;;;14.70;51.00;;;;;;5052474;28;20167;-62
2023/04/05 04:21:31;;;;;;;2.20;2.03;;;14.70;51.00;;;;;;5051607;28;20231;-63
2023/04/05 04:23:56;;;;;;;2.20;2.05;;;14.70;50.90;;;;;;5052307;28;20218;-64
2023/04/05 04:26:27;;;;;;;2.30;2.20;;;14.70;51.10;;;;;;5052543;28;20699;-63
2023/04/05 04:28:56;;;;;;;2.78;2.15;;;14.70;51.00;;;;;;5051545;28;20191;-64
2023/04/05 04:31:21;;;;;;;2.15;2.03;;;14.70;51.00;;;;;;5052723;28;20178;-65
2023/04/05 04:33:50;;;;;;;2.40;2.20;;;14.70;51.00;;;;;;5052361;28;20175;-64
2023/04/05 04:36:16;;;;;;;2.58;2.38;;;14.70;51.00;;;;;;5051953;28;20167;-63
2023/04/05 04:38:43;;;;;;;2.40;2.20;;;14.60;51.00;;;;;;5052283;28;20190;-63
2023/04/05 04:41:12;;;;;;;3.65;2.42;;;14.70;51.00;;;;;;5052209;28;20183;-63
2023/04/05 04:43:41;;;;;;;2.47;2.28;;;14.60;50.90;;;;;;5052116;28;20222;-64
2023/04/05 04:46:10;;;;;;;2.47;2.28;;;14.60;51.00;;;;;;5052528;28;20304;-64
2023/04/05 04:48:36;;;;;;;3.97;2.92;;;14.60;51.00;;;;;;5051566;28;20229;-64
2023/04/05 04:51:03;;;;;;;2.42;2.20;;;14.60;50.90;;;;;;5051925;28;20187;-64
2023/04/05 04:53:28;;;;;;;2.80;2.50;;;14.60;51.00;;;;;;5052364;28;20190;-63
2023/04/05 04:55:56;;;;;;;3.45;2.38;;;14.60;51.00;;;;;;5051196;28;20262;-63
2023/04/05 04:58:21;;;;;;;3.30;2.75;;;14.60;51.00;;;;;;5052340;28;20233;-63
2023/04/05 05:00:47;;;;;;;2.78;2.58;;;14.70;50.70;;;;;;5052053;28;20178;-63
2023/04/05 05:03:12;;;;;;;2.45;2.25;;;14.80;50.40;;;;;;5051351;28;20585;-64
2023/04/05 05:05:45;;;;;;;3.50;2.90;;;14.90;50.30;;;;;;5052135;28;20178;-64
2023/04/05 05:08:11;;;;;;;2.63;2.35;;;14.90;50.00;;;;;;5055039;28;20183;-64
2023/04/05 05:10:37;;;;;;;2.40;2.20;;;15.00;49.90;;;;;;5055432;28;20177;-63
2023/04/05 05:13:02;;;;;;;3.05;2.63;;;15.20;49.90;;;;;;5055664;28;20579;-63
2023/04/05 05:15:31;;;;;;;2.92;2.58;;;15.30;49.80;;;;;;5056206;28;20220;-63
2023/04/05 05:17:57;;;;;;;2.97;2.40;;;15.40;49.60;;;;;;5055168;28;20175;-63
2023/04/05 05:20:23;;;;;;;2.75;2.30;;;15.60;49.50;;;;;;5056162;28;20198;-63
2023/04/05 05:22:50;;;;;;;2.80;2.20;;;15.70;49.30;;;;;;5055460;28;20238;-63
2023/04/05 05:25:15;;;;;;;2.60;2.40;;;15.80;49.10;;;;;;5055366;28;20178;-63
2023/04/05 05:27:41;;;;;;;2.78;2.58;;;15.90;49.00;;;;;;5055315;28;20179;-64
2023/04/05 05:30:07;;;;;;;2.65;2.25;;;16.00;48.80;;;;;;5055977;28;20167;-64
2023/04/05 05:32:33;;;;;;;2.90;2.60;;;16.00;48.70;;;;;;5055151;28;20185;-64
2023/04/05 05:34:59;;;;;;;2.40;2.20;;;16.10;48.70;;;;;;5055273;28;20269;-64
2023/04/05 05:37:29;;;;;;;2.55;2.35;;;16.20;48.70;;;;;;5055288;28;20305;-63
2023/04/05 05:39:54;;;;;;;2.33;2.13;;;16.20;48.60;;;;;;5055242;28;20526;-63
2023/04/05 05:42:20;;;;;;;2.40;2.20;;;16.20;48.60;;;;;;5055365;28;20661;-63
2023/04/05 05:44:45;;;;;;;2.63;2.35;;;16.20;48.60;;;;;;5054529;28;20174;-64
2023/04/05 05:47:11;;;;;;;2.28;2.08;;;16.20;48.60;;;;;;5055575;28;20537;-65
2023/04/05 05:49:39;;;;;;;2.33;2.03;;;16.30;48.60;;;;;;5055443;28;20175;-64
2023/04/05 05:52:05;;;;;;;2.67;2.20;;;16.30;48.60;;;;;;5054329;28;20171;-64
2023/04/05 05:54:30;;;;;;;2.50;1.98;;;16.30;48.60;;;;;;5055136;28;20229;-64
2023/04/05 05:56:56;;;;;;;2.40;2.20;;;16.30;48.60;;;;;;5054890;28;20183;-64
2023/04/05 05:59:21;;;;;;;2.10;2.00;;;16.40;48.60;;;;;;5054702;28;20171;-64
2023/04/05 06:01:47;;;;;;;2.60;2.10;;;16.50;48.60;;;;;;5054920;28;20194;-64
2023/04/05 06:04:13;;;;;;;2.35;2.17;;;16.70;48.40;;;;;;5055002;28;20226;-65
2023/04/05 06:06:41;;;;;;;2.33;2.00;;;16.80;48.20;;;;;;5054319;28;20228;-64
2023/04/05 06:09:07;;;;;;;2.60;2.40;;;17.00;48.00;;;;;;5055299;28;20176;-63
2023/04/05 06:11:32;;;;;;;2.20;2.00;;;17.20;47.60;;;;;;5055504;28;20186;-64
2023/04/05 06:13:58;;;;;;;1.85;1.75;;;17.40;47.50;;;;;;5054617;28;20171;-63
2023/04/05 06:16:23;;;;;;;2.42;2.22;;;17.40;47.90;;;;;;5055442;28;20532;-63
2023/04/05 06:18:49;;;;;;;2.60;2.17;;;17.50;47.10;;;;;;5054880;28;20644;-63
2023/04/05 06:21:16;;;;;;;2.65;2.33;;;17.60;47.00;;;;;;5054300;28;20559;-63
2023/04/05 06:23:41;;;;;;;2.10;1.95;;;17.60;47.00;;;;;;5055005;28;20225;-64
2023/04/05 06:26:08;;;;;;;2.22;2.03;;;17.60;46.90;;;;;;5055177;28;20167;-65
2023/04/05 06:28:33;;;;;;;2.17;1.88;;;17.60;47.10;;;;;;5054568;28;20179;-65
2023/04/05 06:30:59;;;;;;;2.72;2.30;;;17.60;47.10;;;;;;5054700;28;20551;-65
2023/04/05 06:33:25;;;;;;;3.13;2.58;;;17.60;47.20;;;;;;5055082;28;20176;-64
2023/04/05 06:35:51;;;;;;;3.30;2.20;;;17.50;47.30;;;;;;5053805;28;20557;-64
2023/04/05 06:38:16;;;;;;;2.55;2.20;;;17.50;47.30;;;;;;5055004;28;20253;-63
2023/04/05 06:40:42;;;;;;;2.50;2.25;;;17.50;47.30;;;;;;5054739;28;20183;-64
2023/04/05 06:43:09;;;;;;;2.30;2.10;;;17.50;47.30;;;;;;5054168;28;20203;-65
2023/04/05 06:45:35;;;;;;;3.03;2.30;;;17.50;47.40;;;;;;5055078;28;20250;-64
2023/04/05 06:48:00;;;;;;;2.63;2.17;;;17.60;47.50;;;;;;5053858;28;20685;-66
2023/04/05 06:50:26;;;;;;;2.55;2.35;;;17.50;47.50;;;;;;5054758;28;20649;-65
2023/04/05 06:52:51;;;;;;;2.03;1.92;;;17.50;47.70;;;;;;5054338;28;20518;-65
2023/04/05 06:55:17;;;;;;;2.40;2.20;;;17.50;47.60;;;;;;5053857;28;20197;-64
2023/04/05 06:57:42;;;;;;;2.35;2.15;;;17.50;47.70;;;;;;5054382;28;20182;-64
2023/04/05 07:00:12;;;;;;;2.15;1.95;;;17.50;47.70;;;;;;5054713;28;20175;-65
2023/04/05 07:02:37;;;;;;;2.20;2.00;;;17.50;47.70;;;;;;5053703;28;20195;-65
2023/04/05 07:05:04;;;;;;;2.13;1.88;;;17.60;47.70;;;;;;5054158;28;20178;-65
2023/04/05 07:07:31;;;;;;;2.85;2.33;;;17.60;47.70;;;;;;5054592;28;20174;-65
2023/04/05 07:09:57;;;;;;;2.17;2.00;;;17.60;47.70;;;;;;5053628;28;20187;-64
2023/04/05 07:12:22;;;;;;;2.35;2.15;;;17.60;47.80;;;;;;5054462;28;20175;-64
2023/04/05 07:14:48;;;;;;;2.03;1.92;;;17.60;47.80;;;;;;5054029;28;20190;-64
2023/04/05 07:17:13;;;;;;;1.90;1.80;;;17.60;47.80;;;;;;5053486;28;20649;-64
2023/04/05 07:19:39;;;;;;;2.38;2.17;;;17.50;48.00;;;;;;5054212;28;20186;-64
2023/04/05 07:22:05;;;;;;;2.30;2.10;;;17.50;48.00;;;;;;5053915;28;20276;-64
2023/04/05 07:24:30;;;;;;;3.03;2.33;;;17.60;48.00;;;;;;5053587;28;20681;-65
2023/04/05 07:26:56;;;;;;;2.20;2.00;;;17.50;48.10;;;;;;5053811;28;20592;-67
2023/04/05 07:29:21;;;;;;;2.30;1.90;;;17.60;48.10;;;;;;5053895;28;20179;-66
2023/04/05 07:31:47;;;;;;;2.25;2.05;;;17.50;48.10;;;;;;5052783;28;20175;-65
2023/04/05 07:34:12;;;;;;;1.98;1.77;;;17.50;48.40;;;;;;5053977;28;20171;-65
2023/04/05 07:36:41;;;;;;;2.40;2.20;;;17.50;48.20;;;;;;5053875;28;20185;-64
2023/04/05 07:39:06;;;;;;;2.28;2.05;;;17.40;48.30;;;;;;5053217;28;20530;-65
2023/04/05 07:41:34;;;;;;;2.60;1.80;;;17.40;48.50;;;;;;5053947;28;20175;-65
2023/04/05 07:44:00;;;;;;;1.95;1.75;;;17.30;48.60;;;;;;5053443;28;20222;-65
2023/04/05 07:46:26;;;;;;;1.83;1.70;;;17.30;48.70;;;;;;5053104;28;20175;-65
2023/04/05 07:48:54;;;;;;;2.05;1.83;;;17.30;48.80;;;;;;5053452;28;20183;-65
2023/04/05 07:51:20;;;;;;;1.80;1.70;;;17.30;48.80;;;;;;5053046;28;20179;-65
2023/04/05 07:53:45;;;;;;;2.10;1.70;;;17.30;48.80;;;;;;5053538;28;20314;-65
2023/04/05 07:56:13;;;;;;;2.15;1.95;;;17.30;48.90;;;;;;5053724;28;20222;-65
2023/04/05 07:58:40;;;;;;;1.90;1.73;;;17.30;48.90;;;;;;5052913;28;20179;-65
2023/04/05 08:01:09;;;;;;;1.92;1.83;;;17.20;49.00;;;;;;5053130;28;20260;-66
2023/04/05 08:03:35;;;;;;;1.50;1.40;;;17.20;49.10;;;;;;5053112;28;20207;-66
2023/04/05 08:06:16;;;;;;;2.47;1.80;;;17.10;49.20;;;;;;5052549;28;20178;-65
2023/04/05 08:08:42;;;;;;;1.65;1.55;;;17.10;49.30;;;;;;5053050;28;20186;-65
2023/04/05 08:11:10;;;;;;;2.03;1.80;;;17.10;49.30;;;;;;5053269;28;20540;-64
2023/04/05 08:13:37;;;;;;;1.38;1.27;;;17.00;49.40;;;;;;5052549;28;20182;-65
2023/04/05 08:16:03;;;;;;;2.20;2.00;;;17.00;49.40;;;;;;5052707;28;20183;-65
2023/04/05 08:18:28;;;;;;;1.92;1.83;;;17.00;49.50;;;;;;5053099;28;20198;-64
2023/04/05 08:20:54;;;;;;;1.70;1.60;;;17.00;49.60;;;;;;5052041;28;20203;-65
2023/04/05 08:23:20;;;;;;;1.75;1.65;;;16.90;49.60;;;;;;5053299;28;20215;-65
2023/04/05 08:25:46;;;;;;;1.95;1.77;;;16.90;49.70;;;;;;5052940;28;20676;-66
2023/04/05 08:28:11;;;;;;;3.00;2.10;;;16.90;49.70;;;;;;5052450;28;20179;-66
2023/04/05 08:30:37;;;;;;;2.97;1.70;;;16.90;49.80;;;;;;5052904;28;20646;-66
2023/04/05 08:33:03;;;;;;;1.80;1.70;;;16.90;49.80;;;;;;5052563;28;20585;-66
2023/04/05 08:35:29;;;;;;;1.65;1.55;;;16.90;49.80;;;;;;5052282;28;20179;-65
2023/04/05 08:37:54;;;;;;;2.05;1.85;;;16.90;49.80;;;;;;5052708;28;20736;-64
2023/04/05 08:40:21;;;;;;;1.88;1.70;;;16.90;49.80;;;;;;5052335;28;20179;-64
2023/04/05 08:42:51;;;;;;;1.90;1.67;;;16.90;49.90;;;;;;5051593;28;20594;-66
2023/04/05 08:45:20;;;;;;;2.10;1.90;;;16.90;49.90;;;;;;5051530;28;20187;-66
2023/04/05 08:47:45;;;;;;;1.48;1.30;;;16.90;49.90;;;;;;5050828;28;20270;-66
2023/04/05 08:50:12;;;;;;;1.88;1.77;;;17.00;49.90;;;;;;5051701;28;20258;-66
2023/04/05 08:52:38;;;;;;;1.60;1.50;;;17.00;49.90;;;;;;5051404;28;20601;-66
2023/04/05 08:55:05;;;;;;;1.65;1.50;;;17.00;49.90;;;;;;5051601;28;20309;-66
2023/04/05 08:57:30;;;;;;;1.80;1.65;;;17.00;49.90;;;;;;5052686;28;20253;-65
2023/04/05 08:59:58;;;;;;;1.45;1.35;;;17.00;49.90;;;;;;5052416;28;20301;-65
2023/04/05 09:02:24;;;;;;;1.98;1.58;;;17.00;50.00;;;;;;5050703;28;20175;-66
2023/04/05 09:04:50;;;;;;;2.17;1.98;;;17.00;49.90;;;;;;5051137;28;20633;-66
2023/04/05 09:07:15;;;;;;;1.52;1.35;;;17.00;50.00;;;;;;5052602;28;20167;-66
2023/04/05 09:09:52;;;;;;;1.55;1.45;;;17.00;50.00;;;;;;5050595;28;20182;-65
2023/04/05 09:12:24;;;;;;;1.70;1.60;;;17.00;50.00;;;;;;5052600;28;20175;-63
2023/04/05 09:14:50;;;;;;;1.88;1.42;;;17.00;50.00;;;;;;5052495;28;20171;-65
2023/04/05 09:17:18;;;;;;;1.80;1.70;;;17.00;49.90;;;;;;5050671;28;20198;-64
2023/04/05 09:19:44;;;;;;;1.60;1.50;;;17.00;49.90;;;;;;5052254;28;20175;-63
2023/04/05 09:22:10;;;;;;;1.70;1.55;;;17.00;49.90;;;;;;5052348;28;20238;-64
2023/04/05 09:24:40;;;;;;;1.52;1.42;;;17.00;50.50;;;;;;5051686;28;20293;-65
2023/04/05 09:27:13;;;;;;;2.33;1.30;;;17.00;49.90;;;;;;5052407;28;20262;-65
2023/04/05 09:29:44;;;;;;;1.88;1.73;;;17.00;49.90;;;;;;5051826;28;20203;-65
2023/04/05 09:32:11;;;;;;;2.45;1.73;;;17.10;50.50;;;;;;5052493;28;20179;-65
2023/04/05 09:34:37;;;;;;;1.73;1.63;;;17.00;49.80;;;;;;5052322;28;20178;-64
2023/04/05 09:37:13;;;;;;;1.80;1.50;;;17.10;49.90;;;;;;5051161;28;20561;-64
2023/04/05 09:39:38;;;;;;;1.52;1.35;;;17.10;49.80;;;;;;5052422;28;20248;-64
2023/04/05 09:42:05;;;;;;;2.00;1.40;;;17.10;49.90;;;;;;5052126;28;20171;-64
2023/04/05 09:44:54;;;;;;;1.50;1.40;;;17.10;49.90;;;;;;5051550;28;20215;-64
2023/04/05 09:47:21;;;;;;;1.80;1.70;;;17.10;49.90;;;;;;5052432;28;20171;-65
2023/04/05 09:49:50;;;;;;;1.73;1.63;;;17.10;49.90;;;;;;5051905;28;20662;-65
2023/04/05 09:52:25;;;;;;;1.73;1.60;;;17.10;50.00;;;;;;5050361;28;20188;-65
2023/04/05 09:54:52;;;;;;;1.20;1.20;;;17.10;49.90;;;;;;5055667;28;20183;-65
2023/04/05 09:57:18;;;;;;;1.52;1.42;;;17.20;50.00;;;;;;5055855;28;20175;-65
2023/04/05 09:59:46;;;;;;;1.65;1.55;;;17.20;50.00;;;;;;5054903;28;20182;-65
2023/04/05 10:02:12;;;;;;;1.55;1.40;;;17.20;50.00;;;;;;5054375;28;20185;-65
2023/04/05 10:04:43;;;;;;;1.35;1.25;;;17.20;50.00;;;;;;5055793;28;20219;-66
2023/04/05 10:07:12;;;;;;;1.50;1.40;;;17.20;50.00;;;;;;5055639;28;20653;-66
2023/04/05 10:09:40;;;;;;;1.40;1.30;;;17.20;50.00;;;;;;5055634;28;20265;-64
2023/04/05 10:12:09;;;;;;;2.58;1.63;;;17.20;50.00;;;;;;5054588;28;20213;-64
2023/04/05 10:14:35;;;;;;;1.40;1.30;;;17.20;50.00;;;;;;5055404;28;20225;-64
2023/04/05 10:17:11;;;;;;;1.63;1.40;;;17.20;50.00;;;;;;5055181;28;20820;-64
2023/04/05 10:20:01;;;;;;;1.42;1.33;;;17.30;50.00;;;;;;5054668;28;20679;-63
2023/04/05 10:22:50;;;;;;;1.55;1.45;;;17.30;50.10;;;;;;5055301;28;20625;-63
2023/04/05 10:25:22;;;;;;;1.20;1.10;;;17.30;50.00;;;;;;5055418;28;20182;-65
2023/04/05 10:27:48;;;;;;;1.60;1.30;;;17.30;50.70;;;;;;5054459;28;20254;-65
2023/04/05 10:30:14;;;;;;;1.52;1.40;;;17.30;50.00;;;;;;5054010;28;20178;-65
2023/04/05 10:33:03;;;;;;;1.02;1.02;;;17.30;50.00;;;;;;5055256;28;20222;-65
2023/04/05 10:36:01;;;;;;;1.50;1.40;;;17.30;50.00;;;;;;5055104;28;20254;-64
2023/04/05 10:38:28;;;;;;;1.15;1.15;;;17.30;50.00;;;;;;5055289;28;20167;-64
2023/04/05 10:41:02;;;;;;;1.75;1.63;;;17.30;50.00;;;;;;5054226;28;20183;-65
2023/04/05 10:43:28;;;;;;;1.17;1.17;;;17.40;50.00;;;;;;5053629;28;20681;-64
2023/04/05 10:45:56;;;;;;;1.55;1.45;;;17.40;50.00;;;;;;5054753;28;20178;-65
2023/04/05 10:48:48;;;;;;;1.10;1.10;;;17.40;50.00;;;;;;5053075;28;20186;-65
2023/04/05 10:51:13;;;;;;;1.20;1.10;;;17.40;50.00;;;;;;5053800;28;20171;-66
2023/04/05 10:53:41;;;;;;;1.85;1.60;;;17.40;50.00;;;;;;5053729;28;20171;-65
2023/04/05 10:56:07;;;;;;;2.00;1.77;;;17.40;49.90;;;;;;5054017;28;20213;-64
2023/04/05 10:58:32;;;;;;;1.05;1.05;;;17.40;50.00;;;;;;5054686;28;20559;-65
2023/04/05 11:01:01;;;;;;;1.40;1.30;;;17.40;50.00;;;;;;5052871;28;20179;-66
2023/04/05 11:03:45;;;;;;;1.15;1.05;;;17.50;50.00;;;;;;5053436;28;20214;-65
2023/04/05 11:06:21;;;;;;;2.08;1.40;;;17.50;49.90;;;;;;5053699;28;20187;-65
2023/04/05 11:08:48;;;;;;;1.48;1.35;;;17.50;49.90;;;;;;5053663;28;20174;-64
2023/04/05 11:11:15;;;;;;;1.50;1.40;;;17.50;50.00;;;;;;5054522;28;20190;-65
2023/04/05 11:13:48;;;;;;;1.17;1.08;;;17.50;50.00;;;;;;5054669;28;20179;-65
2023/04/05 11:16:14;;;;;;;1.30;1.17;;;17.50;50.00;;;;;;5053688;28;20175;-64
2023/04/05 11:19:06;;;;;;;1.52;1.38;;;17.50;50.00;;;;;;5054335;28;20167;-64
2023/04/05 11:21:31;;;;;;;1.10;1.10;;;17.50;50.00;;;;;;5051438;28;20246;-64
2023/04/05 11:24:05;;;;;;;2.30;1.42;;;17.50;49.90;;;;;;5053233;28;20250;-65
2023/04/05 11:26:32;;;;;;;1.27;1.17;;;17.50;49.90;;;;;;5054291;28;20248;-66
2023/04/05 11:28:58;;;;;;;1.05;1.05;;;17.50;50.00;;;;;;5053869;28;20225;-67
2023/04/05 11:31:25;;;;;;;1.20;1.10;;;17.50;49.90;;;;;;5053387;28;20175;-67
2023/04/05 11:33:59;;;;;;;1.63;1.20;;;17.50;50.00;;;;;;5053652;28;20604;-66
2023/04/05 11:36:37;;;;;;;2.10;1.45;;;17.50;50.00;;;;;;5053207;28;20175;-65
2023/04/05 11:39:18;;;;;;;1.15;1.05;;;17.50;50.00;;;;;;5053581;28;20646;-65
2023/04/05 11:42:03;;;;;;;1.45;1.35;;;17.50;50.00;;;;;;5053738;28;20182;-65
2023/04/05 11:44:48;;;;;;;1.52;1.30;;;17.60;50.00;;;;;;5052859;28;20306;-66
2023/04/05 11:47:17;;;;;;;2.03;1.70;;;17.60;50.00;;;;;;5053665;28;20179;-67
2023/04/05 11:49:46;;;;;;;1.48;1.38;;;17.60;50.00;;;;;;5053477;28;20266;-66
2023/04/05 11:52:19;;;;;;;1.08;1.08;;;17.60;50.00;;;;;;5052931;28;20186;-66
2023/04/05 11:54:45;;;;;;;0.95;0.95;;;17.60;49.90;;;;;;5053402;28;20178;-66
2023/04/05 11:57:21;;;;;;;1.10;1.00;;;17.60;49.90;;;;;;5053686;28;20653;-66
2023/04/05 11:59:51;;;;;;;1.38;1.27;;;17.70;50.00;;;;;;5053443;28;20217;-66
2023/04/05 12:02:16;;;;;;;1.60;1.10;;;17.70;50.50;;;;;;5053744;28;20171;-66
2023/04/05 12:04:42;;;;;;;1.27;1.17;;;17.70;49.90;;;;;;5052534;28;20558;-67
2023/04/05 12:07:18;;;;;;;1.30;1.20;;;17.70;49.90;;;;;;5053540;28;20661;-66
2023/04/05 12:09:56;;;;;;;1.27;1.17;;;17.70;49.80;;;;;;5053327;28;20178;-65
2023/04/05 12:12:22;;;;;;;1.02;1.00;;;17.70;49.80;;;;;;5052543;28;20224;-65
2023/04/05 12:14:47;;;;;;;1.30;1.20;;;17.70;49.80;;;;;;5051863;28;20179;-66
2023/04/05 12:17:13;;;;;;;1.48;1.10;;;17.70;49.70;;;;;;5053010;28;20179;-65
2023/04/05 12:19:38;;;;;;;1.30;1.20;;;17.70;49.70;;;;;;5051139;28;20197;-65
2023/04/05 12:22:04;;;;;;;1.77;1.02;;;17.70;49.70;;;;;;5052543;28;20720;-64
2023/04/05 12:24:29;;;;;;;1.17;1.15;;;17.80;49.70;;;;;;5051949;28;20203;-66
2023/04/05 12:26:55;;;;;;;1.40;1.30;;;17.80;49.60;;;;;;5052189;28;20178;-67
2023/04/05 12:29:20;;;;;;;1.20;1.10;;;17.80;49.60;;;;;;5051796;28;20201;-68
2023/04/05 12:31:46;;;;;;;1.10;1.10;;;17.80;49.60;;;;;;5051511;28;20269;-67
2023/04/05 12:34:13;;;;;;;1.48;1.35;;;17.80;49.60;;;;;;5050849;28;20175;-65
2023/04/05 12:36:44;;;;;;;1.10;1.10;;;17.80;49.50;;;;;;5052745;28;20179;-66
2023/04/05 12:39:09;;;;;;;1.02;1.02;;;17.80;49.60;;;;;;5052087;28;20186;-66
2023/04/05 12:41:36;;;;;;;0.95;0.95;;;17.80;49.60;;;;;;5052298;28;20175;-66
2023/04/05 12:44:05;;;;;;;1.27;1.17;;;17.90;49.60;;;;;;5052456;28;20219;-67
2023/04/05 12:46:44;;;;;;;1.05;1.05;;;17.90;49.60;;;;;;5052060;28;20198;-67
2023/04/05 12:49:11;;;;;;;1.10;1.02;;;17.90;49.60;;;;;;5052880;28;20258;-67
2023/04/05 12:51:40;;;;;;;1.10;1.00;;;17.90;49.60;;;;;;5052905;28;20240;-67